Time;durP1;ratioP1;P1;durP2;ratioP2;P2;SDS_P1;SDS_P2;PMS_P1;PMS_P2;Temp;Humidity;BMP_temperature;BMP_pressure;BME280_temperature;BME280_humidity;BME280_pressure;Samples;Min_cycle;Max_cycle;Signal;HPM_P1;HPM_P2
2022/01/25 00:27:24;;;;;;;11.93;8.50;;;;;;;-7.65;58.31;96260.06;5099739;28;20298;-65
2022/01/25 00:32:20;;;;;;;9.57;7.87;;;;;;;-7.76;58.65;96249.06;5079445;28;20236;-62
2022/01/25 00:34:46;;;;;;;11.37;7.90;;;;;;;-7.81;58.49;96244.00;5089385;28;20227;-65
2022/01/25 00:37:13;;;;;;;10.30;7.63;;;;;;;-7.86;58.78;96252.56;5096356;28;20216;-63
2022/01/25 00:39:40;;;;;;;10.37;7.63;;;;;;;-7.75;58.51;96253.34;5080602;28;20231;-66
2022/01/25 00:42:07;;;;;;;11.70;8.50;;;;;;;-7.76;58.62;96251.63;5064165;28;20295;-63
2022/01/25 00:44:39;;;;;;;11.40;7.83;;;;;;;-7.72;58.21;96255.00;5081179;28;20253;-62
2022/01/25 00:47:06;;;;;;;10.90;8.07;;;;;;;-7.75;58.46;96250.78;5099868;28;20238;-63
2022/01/25 00:49:39;;;;;;;10.27;7.70;;;;;;;-7.72;58.52;96248.22;5101545;28;20230;-62
2022/01/25 00:53:53;;;;;;;10.37;8.10;;;;;;;-7.76;58.76;96239.69;5099210;28;20291;-63
2022/01/25 00:55:04;;;;;;;9.97;7.40;;;;;;;-7.77;58.71;96225.25;5100223;28;20212;-64
2022/01/25 00:57:29;;;;;;;10.10;7.23;;;;;;;-7.80;58.78;96229.56;5101005;28;20244;-62
2022/01/25 00:59:55;;;;;;;9.13;7.03;;;;;;;-7.77;58.84;96234.63;5097589;28;20229;-62
2022/01/25 01:02:20;;;;;;;12.00;7.93;;;;;;;-7.80;58.98;96238.06;5140845;27;20222;-63
2022/01/25 01:04:46;;;;;;;9.23;7.30;;;;;;;-7.74;59.11;96229.50;5139285;27;20297;-65
2022/01/25 01:07:15;;;;;;;8.30;6.97;;;;;;;-7.83;58.48;96237.22;5140628;27;20244;-62
2022/01/25 01:09:43;;;;;;;10.27;7.13;;;;;;;-7.60;58.53;96237.88;5140665;27;20202;-62
2022/01/25 01:12:20;;;;;;;9.60;7.60;;;;;;;-7.67;58.45;96231.16;5141099;28;20214;-64
2022/01/25 01:31:14;;;;;;;9.50;7.23;;;;;;;-7.80;58.88;96215.06;5142658;27;20289;-63
2022/01/25 01:44:04;;;;;;;9.10;7.37;;;;;;;-7.75;59.97;96209.94;5137407;27;20223;-63
2022/01/25 01:49:00;;;;;;;10.50;7.80;;;;;;;-7.91;60.39;96199.00;5141533;27;20229;-62
2022/01/25 01:51:31;;;;;;;10.70;8.10;;;;;;;-7.83;59.97;96204.00;5140573;28;20225;-62
2022/01/25 01:54:04;;;;;;;11.17;8.23;;;;;;;-7.80;60.04;96207.41;5137112;28;20215;-62
2022/01/25 01:56:30;;;;;;;10.47;8.27;;;;;;;-7.81;59.96;96202.31;5140048;27;20221;-64
2022/01/25 01:58:59;;;;;;;11.53;8.30;;;;;;;-7.86;59.94;96201.50;5140751;28;20226;-63
2022/01/25 02:01:26;;;;;;;10.63;8.33;;;;;;;-7.86;60.17;96201.50;5136725;28;20297;-62
2022/01/25 02:03:54;;;;;;;10.60;8.50;;;;;;;-7.90;59.84;96194.72;5140086;27;20215;-61
2022/01/25 02:06:20;;;;;;;12.30;8.20;;;;;;;-7.93;60.30;96197.31;5136961;28;20191;-62
2022/01/25 02:08:46;;;;;;;10.67;8.40;;;;;;;-7.76;59.83;96191.19;5140428;27;20243;-65
2022/01/25 02:11:12;;;;;;;10.80;8.60;;;;;;;-7.79;60.07;96196.31;5142199;27;20289;-64
2022/01/25 02:13:40;;;;;;;11.23;8.53;;;;;;;-7.65;59.32;96187.69;5141468;28;20229;-63
2022/01/25 02:16:08;;;;;;;10.43;8.40;;;;;;;-7.65;59.16;96198.75;5140443;28;20226;-64
2022/01/25 02:24:03;;;;;;;11.70;9.10;;;;;;;-7.77;60.71;96188.66;5143149;27;20240;-63
2022/01/25 02:26:29;;;;;;;13.77;9.07;;;;;;;-7.99;61.21;96173.53;5143624;27;20214;-60
2022/01/25 02:28:54;;;;;;;11.00;8.10;;;;;;;-7.95;61.08;96174.34;5143821;27;20249;-65
2022/01/25 02:31:20;;;;;;;10.90;8.37;;;;;;;-7.84;60.88;96179.34;5141847;27;20337;-62
2022/01/25 02:33:46;;;;;;;11.17;8.73;;;;;;;-7.78;60.91;96176.75;5145995;27;20270;-63
2022/01/25 02:36:26;;;;;;;12.10;8.67;;;;;;;-7.78;60.68;96174.19;5144673;27;20198;-65
2022/01/25 02:38:52;;;;;;;11.60;8.70;;;;;;;-7.89;61.55;96164.06;5142091;27;20308;-64
2022/01/25 02:41:18;;;;;;;13.13;9.10;;;;;;;-7.96;61.04;96172.66;5142832;27;20211;-62
2022/01/25 02:43:46;;;;;;;12.90;9.13;;;;;;;-8.01;61.71;96164.19;5141475;27;20214;-62
2022/01/25 02:48:58;;;;;;;13.30;8.93;;;;;;;-8.07;61.97;96170.19;5145461;27;20206;-63
2022/01/25 02:51:27;;;;;;;11.40;9.30;;;;;;;-7.99;61.91;96172.69;5140857;27;20217;-62
2022/01/25 02:53:53;;;;;;;12.43;9.77;;;;;;;-8.02;62.14;96162.47;5142361;27;20226;-64
2022/01/25 02:56:20;;;;;;;11.53;8.90;;;;;;;-7.90;61.41;96166.66;5142513;27;20226;-63
2022/01/25 02:58:46;;;;;;;12.20;9.60;;;;;;;-7.88;60.71;96164.94;5141674;27;20223;-62
2022/01/25 03:01:12;;;;;;;11.67;8.73;;;;;;;-8.02;62.10;96154.81;5139727;27;20221;-63
2022/01/25 03:03:38;;;;;;;12.07;9.17;;;;;;;-8.05;62.26;96149.75;5137778;27;20202;-63
2022/01/25 03:06:04;;;;;;;12.07;8.63;;;;;;;-8.05;62.08;96150.59;5143062;27;20226;-63
2022/01/25 03:08:30;;;;;;;13.23;9.43;;;;;;;-8.13;61.80;96147.25;5144519;27;20225;-62
2022/01/25 03:10:56;;;;;;;13.23;9.43;;;;;;;-8.07;61.88;96154.88;5140859;27;20227;-65
2022/01/25 03:13:27;;;;;;;13.07;9.60;;;;;;;-8.06;61.63;96164.22;5139526;27;20223;-64
2022/01/25 03:21:04;;;;;;;14.77;10.77;;;;;;;-7.90;61.33;96151.34;5142092;27;20202;-67
2022/01/25 03:23:32;;;;;;;14.90;10.57;;;;;;;-8.06;61.96;96146.34;5145217;27;20219;-63
2022/01/25 03:25:57;;;;;;;13.40;10.50;;;;;;;-8.25;62.36;96142.25;5144539;27;20222;-64
2022/01/25 03:28:23;;;;;;;23.60;15.67;;;;;;;-8.37;62.48;96147.44;5141979;27;20242;-63
2022/01/25 03:30:49;;;;;;;26.67;17.20;;;;;;;-8.57;61.67;96153.56;5143548;27;20213;-63
2022/01/25 03:33:16;;;;;;;26.57;17.93;;;;;;;-8.92;62.61;96159.69;5141217;27;20225;-62
2022/01/25 03:35:43;;;;;;;29.17;18.60;;;;;;;-8.89;63.03;96158.84;5143641;27;20214;-64
2022/01/25 03:38:09;;;;;;;28.97;18.77;;;;;;;-8.89;62.49;96158.84;5139750;27;20218;-64
2022/01/25 03:40:35;;;;;;;29.43;18.93;;;;;;;-9.08;62.77;96152.13;5143497;27;20218;-63
2022/01/25 03:43:03;;;;;;;29.37;19.13;;;;;;;-9.02;62.13;96139.38;5142945;27;20222;-63
2022/01/25 03:45:32;;;;;;;27.37;18.67;;;;;;;-9.33;63.33;96142.91;5142188;27;20227;-65
2022/01/25 03:50:24;;;;;;;33.40;22.43;;;;;;;-9.60;62.67;96135.31;5120714;27;20310;-61
2022/01/25 03:52:50;;;;;;;37.00;23.03;;;;;;;-9.68;62.63;96137.03;5121176;27;20215;-64
2022/01/25 03:55:15;;;;;;;38.43;22.57;;;;;;;-9.72;62.52;96140.47;5126812;27;20237;-64
2022/01/25 03:57:41;;;;;;;39.37;22.87;;;;;;;-9.78;62.57;96137.06;5125067;27;20195;-62
2022/01/25 04:00:08;;;;;;;38.37;23.10;;;;;;;-9.85;62.46;96137.91;5123029;28;20268;-62
2022/01/25 04:02:35;;;;;;;38.73;23.23;;;;;;;-9.96;63.23;96126.09;5123910;28;20227;-64
2022/01/25 04:05:02;;;;;;;36.40;23.00;;;;;;;-9.93;63.22;96136.25;5125377;27;20230;-63
2022/01/25 04:07:42;;;;;;;36.83;23.03;;;;;;;-10.03;63.59;96135.41;5128054;27;20229;-64
2022/01/25 04:10:09;;;;;;;36.07;21.73;;;;;;;-9.98;64.17;96131.16;5131080;27;20229;-62
2022/01/25 04:12:34;;;;;;;33.57;21.87;;;;;;;-9.73;63.74;96138.75;5141623;27;20217;-66
2022/01/25 04:15:01;;;;;;;32.93;22.33;;;;;;;-9.84;63.26;96126.03;5141318;27;20187;-64
2022/01/25 04:17:27;;;;;;;27.40;17.57;;;;;;;-9.77;64.12;96128.56;5143286;27;20207;-62
2022/01/25 04:25:21;;;;;;;20.10;13.47;;;;;;;-9.24;63.49;96128.44;5141168;27;20217;-63
2022/01/25 04:27:47;;;;;;;17.00;12.73;;;;;;;-9.18;63.48;96124.13;5141802;27;20230;-64
2022/01/25 04:30:12;;;;;;;18.70;13.03;;;;;;;-9.02;63.22;96124.91;5141370;27;20233;-65
2022/01/25 04:32:52;;;;;;;17.83;12.33;;;;;;;-8.93;62.88;96119.75;5139593;27;20272;-62
2022/01/25 04:49:01;;;;;;;16.50;11.97;;;;;;;-8.85;62.59;96124.81;5137284;27;20202;-63
2022/01/25 04:57:13;;;;;;;18.07;13.60;;;;;;;-8.90;62.71;96117.22;5097025;28;20207;-64
2022/01/25 05:00:05;;;;;;;20.80;13.77;;;;;;;-8.94;62.35;96112.97;5114463;28;20286;-62
2022/01/25 05:05:36;;;;;;;19.30;12.27;;;;;;;-9.21;62.18;96118.22;5080285;28;20250;-64
2022/01/25 05:10:30;;;;;;;19.97;14.00;;;;;;;-9.22;62.60;96119.06;5080046;28;20224;-62
2022/01/25 05:18:25;;;;;;;21.07;15.10;;;;;;;-9.11;61.77;96117.34;5079573;28;20211;-65
2022/01/25 05:23:35;;;;;;;20.50;13.77;;;;;;;-9.29;63.41;96122.50;5078288;28;20230;-66
2022/01/25 05:26:01;;;;;;;21.00;14.83;;;;;;;-9.30;63.50;96124.22;5080558;28;20240;-65
2022/01/25 05:28:26;;;;;;;20.27;15.20;;;;;;;-9.35;63.68;96115.72;5069730;28;20241;-63
2022/01/25 05:30:52;;;;;;;23.07;15.70;;;;;;;-9.48;64.47;96112.38;5041890;28;20329;-64
2022/01/25 05:33:18;;;;;;;19.20;14.00;;;;;;;-9.28;63.85;96106.34;5060139;28;20197;-63
2022/01/25 05:35:43;;;;;;;21.70;15.00;;;;;;;-9.43;64.27;96103.03;5071892;28;20219;-63
2022/01/25 05:38:09;;;;;;;20.33;14.60;;;;;;;-9.47;64.45;96101.34;5113311;28;20212;-64
2022/01/25 05:40:55;;;;;;;22.23;15.47;;;;;;;-9.37;64.19;96092.81;5101546;28;20236;-65
2022/01/25 05:46:13;;;;;;;20.03;14.57;;;;;;;-9.47;64.05;96083.50;5101712;28;20208;-66
2022/01/25 05:48:38;;;;;;;22.10;15.23;;;;;;;-9.52;64.50;96082.69;5101868;28;20199;-64
2022/01/25 05:51:04;;;;;;;19.97;14.43;;;;;;;-9.47;64.42;96080.13;5099789;28;20196;-63
2022/01/25 05:53:31;;;;;;;20.93;14.67;;;;;;;-9.41;64.00;96088.59;5104052;28;20224;-63
2022/01/25 05:55:56;;;;;;;21.83;14.87;;;;;;;-9.52;64.34;96095.41;5101745;28;20243;-62
2022/01/25 05:58:22;;;;;;;21.90;14.60;;;;;;;-9.48;64.46;96088.63;5102771;28;20227;-62
2022/01/25 06:00:48;;;;;;;18.37;13.67;;;;;;;-9.52;64.42;96095.41;5103096;28;20212;-63
2022/01/25 06:03:13;;;;;;;21.27;15.03;;;;;;;-9.44;64.32;96103.88;5105364;28;20223;-63
2022/01/25 06:05:39;;;;;;;21.53;14.20;;;;;;;-9.47;63.87;96105.59;5106172;28;20310;-62
2022/01/25 06:08:05;;;;;;;21.53;14.80;;;;;;;-9.40;64.29;96109.81;5106156;28;20223;-62
2022/01/25 06:10:31;;;;;;;23.83;15.50;;;;;;;-9.44;63.82;96111.50;5105270;28;20231;-61
2022/01/25 06:12:56;;;;;;;23.27;14.27;;;;;;;-9.43;64.32;96100.47;5103896;28;20235;-61
2022/01/25 06:15:22;;;;;;;22.43;14.27;;;;;;;-9.21;63.25;96108.88;5104510;28;20214;-61
2022/01/25 06:17:49;;;;;;;23.80;14.83;;;;;;;-9.12;62.94;96119.00;5104701;28;20292;-62
2022/01/25 06:20:15;;;;;;;19.00;13.87;;;;;;;-9.24;63.08;96110.59;5104997;28;20319;-63
2022/01/25 06:22:42;;;;;;;18.27;13.90;;;;;;;-9.09;63.24;96118.16;5103953;28;20295;-67
2022/01/25 06:25:10;;;;;;;18.73;13.20;;;;;;;-9.08;62.81;96121.56;5104921;28;20219;-63
2022/01/25 06:27:38;;;;;;;20.37;13.77;;;;;;;-9.12;62.98;96125.81;5111477;27;20230;-62
2022/01/25 06:30:04;;;;;;;19.73;13.90;;;;;;;-9.12;62.75;96107.97;5144799;27;20218;-62
2022/01/25 06:32:30;;;;;;;18.60;14.73;;;;;;;-9.21;63.08;96110.56;5145866;27;20283;-63
2022/01/25 06:34:56;;;;;;;20.23;15.00;;;;;;;-9.12;62.84;96110.53;5144789;27;20210;-62
2022/01/25 06:37:21;;;;;;;17.63;13.00;;;;;;;-9.15;62.75;96116.47;5146120;27;20230;-64
2022/01/25 06:39:48;;;;;;;17.10;12.50;;;;;;;-9.08;61.79;96127.50;5142822;27;20218;-63
2022/01/25 06:42:13;;;;;;;16.80;13.03;;;;;;;-9.10;61.92;96116.47;5146956;27;20238;-64
2022/01/25 06:44:39;;;;;;;19.80;14.00;;;;;;;-8.85;61.38;96123.97;5144490;27;20226;-62
2022/01/25 06:47:05;;;;;;;17.43;14.13;;;;;;;-8.95;61.89;96115.56;5142293;27;20222;-62
2022/01/25 06:49:30;;;;;;;18.17;13.73;;;;;;;-8.81;61.85;96110.38;5143393;27;20229;-65
2022/01/25 06:51:56;;;;;;;19.13;14.00;;;;;;;-8.85;61.11;96101.88;5142088;27;20226;-64
2022/01/25 06:54:21;;;;;;;19.43;12.83;;;;;;;-8.78;61.34;96102.69;5144225;27;20316;-62
2022/01/25 06:56:47;;;;;;;19.30;13.73;;;;;;;-8.69;61.17;96094.97;5143466;27;20218;-67
2022/01/25 06:59:12;;;;;;;21.27;14.37;;;;;;;-8.59;61.25;96094.06;5143643;27;20222;-62
2022/01/25 07:01:38;;;;;;;20.13;13.67;;;;;;;-8.58;60.68;96093.22;5137662;27;20226;-62
2022/01/25 07:04:04;;;;;;;20.03;14.57;;;;;;;-8.44;60.63;96093.97;5136402;27;20266;-67
2022/01/25 07:06:29;;;;;;;18.20;12.93;;;;;;;-8.40;60.31;96091.38;5142041;27;20266;-62
2022/01/25 07:08:55;;;;;;;18.10;13.03;;;;;;;-8.51;60.18;96094.84;5141880;27;20278;-63
2022/01/25 07:11:21;;;;;;;18.27;13.63;;;;;;;-8.49;60.27;96094.84;5143744;27;20211;-63
2022/01/25 07:13:47;;;;;;;18.60;13.07;;;;;;;-8.41;59.98;96084.59;5143258;27;20214;-63
2022/01/25 07:16:13;;;;;;;19.70;13.37;;;;;;;-8.40;59.61;96086.28;5142442;27;20217;-67
2022/01/25 07:18:38;;;;;;;20.03;13.73;;;;;;;-8.39;60.06;96086.28;5144183;27;20233;-63
2022/01/25 07:21:04;;;;;;;18.63;13.87;;;;;;;-8.51;59.88;96077.00;5143736;27;20210;-65
2022/01/25 07:23:29;;;;;;;19.07;14.73;;;;;;;-8.55;60.31;96085.56;5142698;27;20439;-62
2022/01/25 07:25:55;;;;;;;18.27;13.67;;;;;;;-8.61;61.14;96090.66;5141469;27;21418;-62
2022/01/25 07:28:20;;;;;;;18.00;13.93;;;;;;;-8.58;60.53;96088.13;5144319;27;20246;-63
2022/01/25 07:30:46;;;;;;;17.43;12.83;;;;;;;-8.54;60.51;96083.84;5144795;27;20198;-62
2022/01/25 07:33:12;;;;;;;19.73;14.17;;;;;;;-8.36;60.04;96082.81;5144451;27;20210;-62
2022/01/25 07:35:38;;;;;;;19.10;13.47;;;;;;;-8.23;59.76;96077.59;5143519;27;20239;-63
2022/01/25 07:38:04;;;;;;;16.70;13.17;;;;;;;-8.10;59.03;96091.09;5141684;27;20289;-65
2022/01/25 07:40:30;;;;;;;18.03;12.90;;;;;;;-8.13;59.30;96091.09;5141778;27;20218;-62
2022/01/25 07:42:56;;;;;;;17.87;13.33;;;;;;;-8.09;58.64;96079.19;5143648;27;20222;-63
2022/01/25 07:45:21;;;;;;;19.10;14.37;;;;;;;-8.05;58.88;96091.88;5143254;27;20207;-62
2022/01/25 07:47:48;;;;;;;17.63;13.50;;;;;;;-7.92;58.57;96076.47;5144561;27;20222;-63
2022/01/25 07:50:14;;;;;;;19.47;14.10;;;;;;;-7.94;58.65;96084.13;5143419;27;20218;-62
2022/01/25 07:52:40;;;;;;;21.00;14.00;;;;;;;-7.93;58.64;96085.84;5143084;27;20214;-64
2022/01/25 07:55:06;;;;;;;19.53;13.30;;;;;;;-7.71;58.56;96088.16;5142869;27;20226;-63
2022/01/25 07:57:32;;;;;;;18.13;14.63;;;;;;;-7.75;57.55;96089.91;5143531;27;20267;-64
2022/01/25 07:59:59;;;;;;;19.13;13.47;;;;;;;-7.67;58.18;96090.69;5142861;27;20214;-64
2022/01/25 08:02:25;;;;;;;19.97;14.37;;;;;;;-7.53;57.42;96074.38;5140120;27;20230;-64
2022/01/25 08:04:50;;;;;;;20.23;13.73;;;;;;;-7.58;56.92;96074.41;5142313;27;20218;-63
2022/01/25 08:07:17;;;;;;;18.13;12.57;;;;;;;-7.51;57.75;96077.72;5140660;27;20226;-63
2022/01/25 08:09:44;;;;;;;19.20;13.53;;;;;;;-7.36;57.68;96072.44;5141090;27;20213;-64
2022/01/25 08:12:11;;;;;;;18.27;13.13;;;;;;;-7.21;56.79;96074.81;5141457;27;20225;-65
2022/01/25 08:14:38;;;;;;;18.37;13.60;;;;;;;-7.23;56.39;96073.97;5141112;27;20218;-63
2022/01/25 08:17:04;;;;;;;18.13;14.90;;;;;;;-7.32;56.64;96071.56;5141274;27;20230;-63
2022/01/25 08:19:29;;;;;;;18.97;14.00;;;;;;;-7.36;57.47;96082.66;5142682;27;20286;-64
2022/01/25 08:21:55;;;;;;;19.23;13.90;;;;;;;-7.32;57.04;96072.38;5141419;27;20241;-64
2022/01/25 08:24:21;;;;;;;20.67;14.10;;;;;;;-7.39;57.33;96069.94;5143730;27;20317;-67
2022/01/25 08:26:47;;;;;;;19.03;13.70;;;;;;;-7.30;57.24;96082.56;5140481;27;20210;-69
2022/01/25 08:29:13;;;;;;;17.93;13.67;;;;;;;-7.39;57.68;96067.38;5141855;27;20230;-64
2022/01/25 08:31:41;;;;;;;18.70;14.40;;;;;;;-7.11;57.03;96066.16;5155879;27;20215;-64
2022/01/25 08:34:08;;;;;;;19.70;14.47;;;;;;;-7.06;55.99;96073.75;5141828;27;20238;-64
2022/01/25 08:36:34;;;;;;;19.63;13.80;;;;;;;-7.02;56.16;96080.53;5140150;27;20210;-67
2022/01/25 08:39:00;;;;;;;19.60;14.00;;;;;;;-7.18;56.57;96063.72;5141798;27;20210;-67
2022/01/25 08:41:26;;;;;;;17.70;13.03;;;;;;;-7.11;56.19;96071.28;5141795;27;20267;-67
2022/01/25 08:43:51;;;;;;;19.30;12.87;;;;;;;-7.15;56.16;96064.50;5140259;27;20246;-64
2022/01/25 08:46:18;;;;;;;17.93;14.13;;;;;;;-7.16;56.67;96060.25;5141734;27;20309;-63
2022/01/25 08:48:45;;;;;;;20.40;14.40;;;;;;;-7.07;56.19;96058.44;5142754;27;20290;-65
2022/01/25 08:51:11;;;;;;;17.53;13.20;;;;;;;-6.91;56.01;96065.03;5142563;27;20221;-65
2022/01/25 08:53:36;;;;;;;18.23;13.20;;;;;;;-6.73;55.34;96046.88;5138763;27;20206;-63
2022/01/25 08:56:03;;;;;;;19.17;13.37;;;;;;;-6.39;54.96;96055.72;5142790;27;20219;-64
2022/01/25 08:58:28;;;;;;;29.00;14.23;;;;;;;-6.29;54.71;96050.44;5142270;27;20211;-65
2022/01/25 09:00:55;;;;;;;24.23;14.97;;;;;;;-6.18;53.89;96050.25;5139608;27;20226;-64
2022/01/25 09:03:21;;;;;;;20.70;15.40;;;;;;;-6.35;53.58;96050.53;5142324;27;20198;-63
2022/01/25 09:05:46;;;;;;;19.33;12.40;;;;;;;-6.31;53.18;96051.31;5140702;27;20233;-65
2022/01/25 09:08:21;;;;;;;16.80;12.07;;;;;;;-6.12;53.26;96045.06;5124889;27;20211;-65
2022/01/25 09:10:57;;;;;;;19.87;12.50;;;;;;;-6.12;52.98;96042.50;5121035;28;20286;-64
2022/01/25 09:13:24;;;;;;;17.00;13.50;;;;;;;-6.39;53.29;96038.66;5118045;28;20248;-65
2022/01/25 09:15:50;;;;;;;16.80;12.20;;;;;;;-6.21;52.77;96030.66;5122130;27;20237;-67
2022/01/25 09:18:15;;;;;;;18.90;12.87;;;;;;;-6.00;53.09;96021.78;5141344;27;20202;-65
2022/01/25 09:20:41;;;;;;;20.33;12.47;;;;;;;-5.86;52.39;96018.09;5121802;28;20223;-66
2022/01/25 09:23:07;;;;;;;16.67;12.60;;;;;;;-5.83;52.10;96023.16;5116150;28;20628;-65
2022/01/25 09:25:33;;;;;;;15.30;12.07;;;;;;;-5.69;51.82;96015.19;5120469;27;20218;-65
2022/01/25 09:28:00;;;;;;;18.07;12.17;;;;;;;-5.64;51.71;96018.50;5128201;27;20231;-64
2022/01/25 09:30:27;;;;;;;19.63;12.47;;;;;;;-5.61;51.41;96023.59;5129786;27;20199;-64
2022/01/25 09:32:53;;;;;;;17.57;12.60;;;;;;;-5.58;51.23;96008.16;5144154;27;20225;-62
2022/01/25 09:35:18;;;;;;;19.30;12.23;;;;;;;-5.45;52.62;96019.84;5144607;27;20226;-62
2022/01/25 09:37:44;;;;;;;18.40;12.80;;;;;;;-5.54;51.63;96014.91;5144814;27;20528;-65
2022/01/25 09:40:11;;;;;;;18.13;13.27;;;;;;;-5.53;51.20;96026.84;5141309;27;20302;-63
2022/01/25 09:42:38;;;;;;;15.97;11.40;;;;;;;-5.41;50.72;96015.50;5144956;27;20241;-64
2022/01/25 09:45:04;;;;;;;15.73;10.80;;;;;;;-5.52;50.97;96018.28;5145882;27;20224;-63
2022/01/25 09:47:30;;;;;;;17.10;11.73;;;;;;;-5.51;51.08;96019.97;5144572;27;20229;-63
2022/01/25 09:49:55;;;;;;;17.83;11.77;;;;;;;-5.52;51.14;96010.59;5145471;27;20275;-63
2022/01/25 09:52:23;;;;;;;17.53;12.43;;;;;;;-5.39;50.86;95999.22;5144966;27;20286;-64
2022/01/25 09:54:56;;;;;;;17.00;12.07;;;;;;;-5.02;50.43;95998.44;5143114;27;20213;-63
2022/01/25 09:57:23;;;;;;;17.57;13.60;;;;;;;-5.22;51.14;95995.44;5144273;27;20272;-64
2022/01/25 09:59:49;;;;;;;17.37;11.97;;;;;;;-5.44;51.15;95995.91;5142783;27;20234;-64
2022/01/25 10:02:42;;;;;;;18.73;12.53;;;;;;;-5.29;51.75;95992.19;5141271;27;20237;-64
2022/01/25 10:05:16;;;;;;;15.87;11.93;;;;;;;-5.30;50.79;95993.03;5142450;27;20232;-65
2022/01/25 10:07:42;;;;;;;17.30;11.83;;;;;;;-5.29;51.23;95989.63;5143071;27;20226;-63
2022/01/25 10:10:08;;;;;;;15.77;13.57;;;;;;;-5.27;51.18;95984.44;5145376;27;20232;-63
2022/01/25 10:12:34;;;;;;;16.47;11.90;;;;;;;-5.27;51.02;95990.41;5143908;27;20241;-63
2022/01/25 10:14:59;;;;;;;18.53;13.10;;;;;;;-5.48;51.69;95958.41;5144078;27;20198;-63
2022/01/25 10:17:32;;;;;;;18.97;13.27;;;;;;;-5.07;50.33;95984.88;5141296;27;20230;-64
2022/01/25 10:19:58;;;;;;;19.13;13.73;;;;;;;-5.16;50.87;95964.53;5140136;27;20218;-64
2022/01/25 10:22:24;;;;;;;21.53;13.43;;;;;;;-5.12;51.06;95968.75;5144254;27;20301;-62
2022/01/25 10:24:49;;;;;;;17.73;12.57;;;;;;;-4.93;51.16;95964.88;5141320;27;20278;-63
2022/01/25 10:27:15;;;;;;;19.33;13.13;;;;;;;-4.89;50.67;95969.06;5143625;27;20218;-63
2022/01/25 10:29:41;;;;;;;19.00;13.33;;;;;;;-4.61;49.73;95965.00;5144481;27;20234;-62
2022/01/25 10:32:14;;;;;;;16.53;12.67;;;;;;;-4.64;49.93;95960.78;5142017;27;20222;-63
2022/01/25 10:34:58;;;;;;;18.43;13.50;;;;;;;-4.64;49.76;95955.66;5138544;27;20237;-63
2022/01/25 10:37:25;;;;;;;19.10;13.00;;;;;;;-4.65;50.07;95951.41;5142002;27;20240;-64
2022/01/25 10:39:53;;;;;;;17.43;12.57;;;;;;;-4.52;50.75;95942.50;5142912;27;20234;-64
2022/01/25 10:42:24;;;;;;;19.43;13.20;;;;;;;-4.10;49.86;95944.84;5143104;27;20270;-63
2022/01/25 10:45:04;;;;;;;19.10;13.57;;;;;;;-3.84;49.24;95940.75;5141172;27;20224;-64
2022/01/25 10:47:46;;;;;;;20.10;13.43;;;;;;;-4.02;49.03;95937.78;5142047;27;20222;-62
2022/01/25 10:50:21;;;;;;;19.03;13.63;;;;;;;-3.83;49.50;95937.28;5139891;27;20215;-63
2022/01/25 10:53:02;;;;;;;20.90;15.13;;;;;;;-3.85;48.70;95923.63;5141427;27;20214;-62
2022/01/25 10:55:43;;;;;;;21.67;14.23;;;;;;;-3.34;49.11;95923.84;5141072;27;20243;-63
2022/01/25 10:58:10;;;;;;;18.50;13.20;;;;;;;-3.26;48.16;95918.50;5142454;27;20286;-63
2022/01/25 11:00:41;;;;;;;18.77;13.47;;;;;;;-3.03;47.40;95917.75;5139135;27;20218;-66
2022/01/25 11:03:07;;;;;;;19.87;13.27;;;;;;;-2.99;47.79;95916.78;5155739;27;20211;-62
2022/01/25 11:05:39;;;;;;;18.47;15.37;;;;;;;-3.29;47.11;95899.72;5142658;27;20226;-62
2022/01/25 11:08:19;;;;;;;21.80;14.70;;;;;;;-3.00;48.38;95909.09;5140965;27;20237;-64
2022/01/25 11:11:00;;;;;;;19.20;13.47;;;;;;;-2.55;46.69;95908.53;5139875;27;20218;-64
2022/01/25 11:15:59;;;;;;;20.43;14.10;;;;;;;-2.41;46.43;95901.16;5140856;27;20261;-63
2022/01/25 11:18:25;;;;;;;16.30;12.87;;;;;;;-2.28;45.70;95894.69;5140747;27;20206;-62
2022/01/25 11:20:52;;;;;;;19.33;14.13;;;;;;;-2.17;45.43;95894.34;5142094;27;20246;-63
2022/01/25 11:23:18;;;;;;;20.10;14.27;;;;;;;-2.36;44.98;95901.84;5139816;27;20226;-65
2022/01/25 11:25:46;;;;;;;18.17;13.73;;;;;;;-2.39;45.83;95898.56;5141430;27;20252;-64
2022/01/25 11:28:15;;;;;;;18.40;14.00;;;;;;;-2.44;45.78;95880.66;5140913;27;20234;-63
2022/01/25 11:30:43;;;;;;;18.50;13.23;;;;;;;-2.05;46.12;95882.78;5137709;27;20199;-63
2022/01/25 11:33:13;;;;;;;19.30;14.10;;;;;;;-1.91;45.01;95870.22;5124074;27;20285;-64
2022/01/25 11:35:40;;;;;;;18.50;14.20;;;;;;;-2.03;44.85;95868.09;5138589;27;20219;-64
2022/01/25 11:38:07;;;;;;;19.60;13.93;;;;;;;-1.75;44.62;95865.34;5127171;27;20253;-64
2022/01/25 11:40:41;;;;;;;20.73;13.93;;;;;;;-1.47;43.45;95852.28;5118850;28;20219;-61
2022/01/25 11:43:12;;;;;;;18.57;13.70;;;;;;;-1.18;43.53;95850.28;5121280;28;20222;-62
2022/01/25 11:45:44;;;;;;;17.27;13.63;;;;;;;-1.13;43.56;95856.09;5119613;28;20211;-63
2022/01/25 11:48:10;;;;;;;15.70;12.87;;;;;;;-1.03;42.47;95849.69;5119994;27;20195;-62
2022/01/25 11:50:39;;;;;;;21.20;14.47;;;;;;;-1.01;42.22;95841.88;5139624;27;20210;-63
2022/01/25 11:53:10;;;;;;;19.23;14.07;;;;;;;-1.07;42.31;95842.13;5127639;27;20257;-65
2022/01/25 11:55:42;;;;;;;19.87;14.07;;;;;;;-0.98;42.54;95836.59;5122306;27;20247;-65
2022/01/25 11:58:10;;;;;;;19.60;13.67;;;;;;;-0.78;41.71;95828.03;5119223;28;20227;-65
2022/01/25 12:00:45;;;;;;;16.73;13.43;;;;;;;-0.80;41.54;95832.41;5120759;27;20261;-64
2022/01/25 12:03:32;;;;;;;20.13;14.37;;;;;;;-1.01;42.63;95834.97;5141808;27;20236;-64
2022/01/25 12:06:06;;;;;;;17.73;13.83;;;;;;;-0.40;41.33;95823.84;5141183;27;20245;-63
2022/01/25 12:08:53;;;;;;;18.73;14.87;;;;;;;-0.20;41.05;95819.56;5135181;27;20277;-64
2022/01/25 12:11:31;;;;;;;25.03;17.50;;;;;;;0.02;41.06;95819.44;5140900;27;20215;-63
2022/01/25 12:14:26;;;;;;;20.40;14.80;;;;;;;0.15;39.64;95820.56;5141962;27;20222;-62
2022/01/25 12:16:55;;;;;;;20.57;14.40;;;;;;;0.22;40.55;95809.88;5138115;27;20230;-62
2022/01/25 12:19:54;;;;;;;17.00;14.33;;;;;;;-0.08;40.21;95814.69;5139992;27;20238;-64
2022/01/25 12:22:36;;;;;;;21.20;14.27;;;;;;;0.56;38.86;95808.34;5062889;28;20229;-65
2022/01/25 12:25:38;;;;;;;16.97;13.17;;;;;;;1.21;37.88;95800.91;5057129;28;20256;-63
2022/01/25 12:28:10;;;;;;;16.60;13.63;;;;;;;1.54;36.56;95806.13;5004143;28;20288;-64
2022/01/25 12:30:43;;;;;;;17.07;13.33;;;;;;;2.48;35.24;95798.63;5018521;28;20227;-63
2022/01/25 12:33:18;;;;;;;17.93;14.70;;;;;;;3.91;33.87;95793.94;5001971;28;20214;-63
2022/01/25 12:35:44;;;;;;;19.33;15.27;;;;;;;6.10;28.40;95791.22;5000705;28;20237;-63
2022/01/25 12:38:31;;;;;;;17.27;13.30;;;;;;;8.82;25.72;95783.25;4994270;28;20298;-64
2022/01/25 12:41:16;;;;;;;16.93;13.73;;;;;;;11.22;20.81;95769.13;4931710;28;20256;-64
2022/01/25 12:43:50;;;;;;;16.83;13.50;;;;;;;14.20;17.90;95774.31;4937257;29;20221;-63
2022/01/25 12:46:15;;;;;;;17.00;14.10;;;;;;;15.75;15.96;95766.16;4926707;29;20257;-63
2022/01/25 12:48:53;;;;;;;18.67;13.53;;;;;;;15.59;15.11;95769.59;4926402;29;20209;-63
2022/01/25 12:51:24;;;;;;;17.33;13.47;;;;;;;18.21;13.43;95755.28;4940943;29;20232;-63
2022/01/25 12:53:53;;;;;;;19.60;15.43;;;;;;;17.79;13.67;95762.78;4942318;28;20237;-64
2022/01/25 12:56:24;;;;;;;21.03;14.33;;;;;;;18.25;12.93;95748.56;4939564;29;20229;-64
2022/01/25 12:58:58;;;;;;;19.27;15.57;;;;;;;18.46;12.06;95754.03;4941542;28;20381;-63
2022/01/25 13:01:26;;;;;;;18.43;15.80;;;;;;;16.80;13.08;95751.03;4995398;28;20261;-63
2022/01/25 13:04:00;;;;;;;18.10;14.93;;;;;;;17.78;13.33;95749.66;4999445;28;20237;-64
2022/01/25 13:06:30;;;;;;;17.47;14.30;;;;;;;17.51;12.77;95746.53;5058029;28;20212;-65
2022/01/25 13:09:12;;;;;;;17.27;14.93;;;;;;;17.20;12.82;95742.03;5039378;28;20240;-63
2022/01/25 13:17:00;;;;;;;15.07;13.40;;;;;;;17.76;12.37;95728.53;5066964;28;20316;-62
2022/01/25 13:19:38;;;;;;;16.37;14.67;;;;;;;18.91;11.38;95722.91;5123903;27;20218;-62
2022/01/25 13:22:10;;;;;;;16.60;14.67;;;;;;;18.44;11.90;95725.91;5138745;27;20287;-63
2022/01/25 13:24:44;;;;;;;16.27;14.73;;;;;;;18.36;11.83;95726.81;5135711;28;20583;-61
2022/01/25 13:27:13;;;;;;;15.70;14.20;;;;;;;14.51;15.27;95727.88;5116344;28;20202;-65
2022/01/25 13:32:34;;;;;;;15.87;14.27;;;;;;;15.26;13.88;95735.06;5136478;27;20233;-62